Time,TemperatureF,DewpointF,PressureIn,WindDirection,WindDirectionDegrees,WindSpeedMPH,WindSpeedGustMPH,Humidity,HourlyPrecipIn,Conditions,Clouds,dailyrainin,SoftwareType,DateUTC
2013-04-20 00:01:00,53.9,51.0,29.74,NNW,332,0.0,3.0,90,0.00,,,0.00,WeatherCatV1.02B4,2013-04-20 04:01:00,
2013-04-20 00:06:00,53.9,51.0,29.75,WSW,256,0.0,0.0,90,0.04,,,0.00,WeatherCatV1.02B4,2013-04-20 04:06:00,
2013-04-20 00:11:00,53.9,51.0,29.75,SW,231,0.0,1.0,90,0.00,,,0.00,WeatherCatV1.02B4,2013-04-20 04:11:00,
2013-04-20 00:16:00,53.8,50.9,29.75,NNW,348,1.0,3.0,90,0.06,,,0.01,WeatherCatV1.02B4,2013-04-20 04:16:00,
2013-04-20 00:21:00,53.7,50.8,29.75,NNW,328,0.0,0.0,90,0.11,,,0.01,WeatherCatV1.02B4,2013-04-20 04:21:00,
2013-04-20 00:26:00,53.7,50.8,29.76,NNW,328,0.0,0.0,90,0.00,,,0.00,WeatherCatV1.02B4,2013-04-20 04:26:00,
2013-04-20 00:31:00,53.7,51.1,29.77,NNW,328,0.0,0.0,91,0.00,,,0.00,WeatherCatV1.02B4,2013-04-20 04:31:00,
2013-04-20 00:36:00,53.6,50.7,29.77,WNW,288,0.0,0.0,90,0.00,,,0.00,WeatherCatV1.02B4,2013-04-20 04:36:00,
2013-04-20 00:41:00,53.4,50.5,29.78,West,262,3.0,7.0,90,0.14,,,0.00,WeatherCatV1.02B4,2013-04-20 04:41:00,
2013-04-20 00:46:00,52.6,49.5,29.78,WSW,258,0.0,0.0,89,0.00,,,0.00,WeatherCatV1.02B4,2013-04-20 04:46:00,
2013-04-20 00:51:00,51.9,48.8,29.77,WSW,258,0.0,0.0,89,0.00,,,0.00,WeatherCatV1.02B4,2013-04-20 04:51:00,
2013-04-20 00:56:00,51.3,48.2,29.76,NW,322,0.0,0.0,89,0.00,,,0.00,WeatherCatV1.02B4,2013-04-20 04:56:00,
2013-04-20 01:01:00,50.9,48.1,29.76,NW,316,0.0,0.0,90,0.00,,,0.07,WeatherCatV1.02B4,2013-04-20 05:01:00,
2013-04-20 01:06:00,50.7,47.9,29.76,WNW,290,0.0,0.0,90,0.00,,,0.07,WeatherCatV1.02B4,2013-04-20 05:06:00,
2013-04-20 01:11:00,50.5,47.7,29.76,WNW,290,0.0,0.0,90,0.04,,,0.08,WeatherCatV1.02B4,2013-04-20 05:11:00,
2013-04-20 01:16:00,50.4,47.6,29.76,WNW,294,0.0,0.0,90,0.00,,,0.08,WeatherCatV1.02B4,2013-04-20 05:16:00,
2013-04-20 01:21:00,50.3,47.5,29.76,WNW,299,0.0,0.0,90,0.00,,,0.08,WeatherCatV1.02B4,2013-04-20 05:21:00,
2013-04-20 01:26:00,50.4,47.9,29.76,NW,309,0.0,5.0,91,0.00,,,0.09,WeatherCatV1.02B4,2013-04-20 05:26:00,
2013-04-20 01:31:00,50.3,47.5,29.76,NNW,344,0.0,6.0,90,0.00,,,0.09,WeatherCatV1.02B4,2013-04-20 05:31:00,
2013-04-20 01:36:00,50.2,47.7,29.78,WNW,289,2.0,6.0,91,0.00,,,0.09,WeatherCatV1.02B4,2013-04-20 05:36:00,
2013-04-20 01:41:00,50.0,47.2,29.78,WNW,287,0.0,0.0,90,0.00,,,0.10,WeatherCatV1.02B4,2013-04-20 05:41:00,
2013-04-20 01:46:00,49.9,47.1,29.80,WNW,284,1.0,5.0,90,0.00,,,0.11,WeatherCatV1.02B4,2013-04-20 05:46:00,
2013-04-20 01:51:00,49.8,47.0,29.79,West,263,0.0,9.0,90,0.00,,,0.12,WeatherCatV1.02B4,2013-04-20 05:51:00,
2013-04-20 01:56:00,49.6,47.1,29.79,NW,316,0.0,0.0,91,0.00,,,0.13,WeatherCatV1.02B4,2013-04-20 05:56:00,
2013-04-20 02:01:00,49.4,46.6,29.78,WSW,254,0.0,0.0,90,0.00,,,0.14,WeatherCatV1.02B4,2013-04-20 06:01:00,
2013-04-20 02:06:00,49.4,46.6,29.78,NNW,347,4.0,4.0,90,0.00,,,0.14,WeatherCatV1.02B4,2013-04-20 06:06:00,
2013-04-20 02:11:00,49.2,46.4,29.78,SW,226,0.0,0.0,90,0.00,,,0.14,WeatherCatV1.02B4,2013-04-20 06:11:00,
2013-04-20 02:16:00,49.1,46.3,29.77,SW,226,0.0,0.0,90,0.00,,,0.15,WeatherCatV1.02B4,2013-04-20 06:16:00,
2013-04-20 02:21:00,49.1,46.3,29.78,SW,229,0.0,0.0,90,0.00,,,0.15,WeatherCatV1.02B4,2013-04-20 06:21:00,
2013-04-20 02:26:00,49.0,46.5,29.79,NNW,342,0.0,0.0,91,0.00,,,0.15,WeatherCatV1.02B4,2013-04-20 06:26:00,
2013-04-20 02:31:00,49.0,46.2,29.79,NNW,342,0.0,0.0,90,0.00,,,0.15,WeatherCatV1.02B4,2013-04-20 06:31:00,
2013-04-20 02:36:00,49.0,46.5,29.79,NNW,333,0.0,0.0,91,0.00,,,0.16,WeatherCatV1.02B4,2013-04-20 06:36:00,
2013-04-20 02:41:00,49.0,46.2,29.79,West,265,0.0,5.0,90,0.08,,,0.17,WeatherCatV1.02B4,2013-04-20 06:41:00,
2013-04-20 02:46:00,48.8,46.0,29.79,West,265,0.0,0.0,90,0.00,,,0.17,WeatherCatV1.02B4,2013-04-20 06:46:00,
2013-04-20 02:51:00,48.7,46.2,29.80,West,267,0.0,3.0,91,0.00,,,0.17,WeatherCatV1.02B4,2013-04-20 06:51:00,
2013-04-20 02:56:00,48.6,46.1,29.80,West,267,0.0,0.0,91,0.00,,,0.17,WeatherCatV1.02B4,2013-04-20 06:56:00,
2013-04-20 03:01:00,48.4,45.9,29.80,West,265,0.0,0.0,91,0.00,,,0.17,WeatherCatV1.02B4,2013-04-20 07:01:00,
2013-04-20 03:06:00,48.3,45.5,29.80,WNW,284,3.0,4.0,90,0.00,,,0.17,WeatherCatV1.02B4,2013-04-20 07:06:00,
2013-04-20 03:11:00,48.1,45.6,29.81,WNW,291,0.0,0.0,91,0.00,,,0.17,WeatherCatV1.02B4,2013-04-20 07:11:00,
2013-04-20 03:16:00,48.0,45.5,29.81,West,279,0.0,0.0,91,0.00,,,0.17,WeatherCatV1.02B4,2013-04-20 07:16:00,
2013-04-20 03:21:00,47.8,45.3,29.81,West,271,0.0,0.0,91,0.00,,,0.17,WeatherCatV1.02B4,2013-04-20 07:21:00,
2013-04-20 03:26:00,47.6,45.1,29.80,West,271,0.0,0.0,91,0.00,,,0.17,WeatherCatV1.02B4,2013-04-20 07:26:00,
2013-04-20 03:31:00,47.5,45.0,29.80,West,271,0.0,0.0,91,0.00,,,0.17,WeatherCatV1.02B4,2013-04-20 07:31:00,
2013-04-20 03:36:00,47.3,44.5,29.81,West,262,0.0,0.0,90,0.00,,,0.17,WeatherCatV1.02B4,2013-04-20 07:36:00,
2013-04-20 03:41:00,47.1,44.3,29.81,West,266,0.0,0.0,90,0.00,,,0.17,WeatherCatV1.02B4,2013-04-20 07:41:00,
2013-04-20 03:46:00,47.0,44.5,29.81,West,267,0.0,0.0,91,0.00,,,0.17,WeatherCatV1.02B4,2013-04-20 07:46:00,
2013-04-20 03:51:00,46.8,44.0,29.81,West,267,0.0,0.0,90,0.00,,,0.17,WeatherCatV1.02B4,2013-04-20 07:51:00,
2013-04-20 03:56:00,46.7,43.9,29.81,WSW,252,0.0,4.0,90,0.00,,,0.17,WeatherCatV1.02B4,2013-04-20 07:56:00,
2013-04-20 04:01:00,46.6,43.8,29.82,WSW,252,0.0,0.0,90,0.00,,,0.17,WeatherCatV1.02B4,2013-04-20 08:01:00,
2013-04-20 04:06:00,46.5,43.7,29.82,WSW,241,0.0,0.0,90,0.00,,,0.18,WeatherCatV1.02B4,2013-04-20 08:06:00,
2013-04-20 04:11:00,46.5,43.7,29.83,WSW,243,0.0,0.0,90,0.00,,,0.18,WeatherCatV1.02B4,2013-04-20 08:11:00,
2013-04-20 04:16:00,46.4,43.6,29.83,WSW,243,0.0,0.0,90,0.00,,,0.18,WeatherCatV1.02B4,2013-04-20 08:16:00,
2013-04-20 04:21:00,46.3,43.5,29.84,WSW,243,0.0,0.0,90,0.00,,,0.18,WeatherCatV1.02B4,2013-04-20 08:21:00,
2013-04-20 04:26:00,46.3,43.5,29.84,WSW,243,0.0,0.0,90,0.00,,,0.18,WeatherCatV1.02B4,2013-04-20 08:26:00,
2013-04-20 04:31:00,46.3,43.5,29.84,WSW,245,0.0,3.0,90,0.00,,,0.18,WeatherCatV1.02B4,2013-04-20 08:31:00,
2013-04-20 04:36:00,46.3,43.5,29.84,WSW,246,0.0,0.0,90,0.00,,,0.18,WeatherCatV1.02B4,2013-04-20 08:36:00,
2013-04-20 04:41:00,46.2,43.4,29.85,WSW,246,0.0,0.0,90,0.00,,,0.18,WeatherCatV1.02B4,2013-04-20 08:41:00,
2013-04-20 04:46:00,46.1,43.3,29.85,WSW,254,0.0,4.0,90,0.00,,,0.18,WeatherCatV1.02B4,2013-04-20 08:46:00,
2013-04-20 04:51:00,46.0,43.2,29.86,WSW,254,0.0,0.0,90,0.00,,,0.18,WeatherCatV1.02B4,2013-04-20 08:51:00,
2013-04-20 04:56:00,46.0,43.2,29.86,WSW,258,0.0,0.0,90,0.00,,,0.18,WeatherCatV1.02B4,2013-04-20 08:56:00,
2013-04-20 05:01:00,46.0,43.2,29.86,WSW,258,0.0,0.0,90,0.00,,,0.18,WeatherCatV1.02B4,2013-04-20 09:01:00,
2013-04-20 05:06:00,46.0,42.9,29.88,WSW,258,0.0,0.0,89,0.00,,,0.18,WeatherCatV1.02B4,2013-04-20 09:06:00,
2013-04-20 05:11:00,46.0,43.2,29.87,WSW,258,0.0,0.0,90,0.00,,,0.18,WeatherCatV1.02B4,2013-04-20 09:11:00,
2013-04-20 05:16:00,46.0,42.9,29.88,WSW,258,0.0,0.0,89,0.00,,,0.18,WeatherCatV1.02B4,2013-04-20 09:16:00,
2013-04-20 05:21:00,46.0,43.2,29.88,WSW,258,0.0,0.0,90,0.00,,,0.18,WeatherCatV1.02B4,2013-04-20 09:21:00,
2013-04-20 05:26:00,45.9,43.1,29.89,WSW,258,1.0,4.0,90,0.00,,,0.18,WeatherCatV1.02B4,2013-04-20 09:26:00,
2013-04-20 05:31:00,45.9,42.8,29.89,WSW,258,0.0,0.0,89,0.00,,,0.18,WeatherCatV1.02B4,2013-04-20 09:31:00,
2013-04-20 05:36:00,45.8,42.7,29.89,NW,309,1.0,3.0,89,0.00,,,0.18,WeatherCatV1.02B4,2013-04-20 09:36:00,
2013-04-20 05:41:00,45.8,42.7,29.88,West,273,0.0,4.0,89,0.00,,,0.18,WeatherCatV1.02B4,2013-04-20 09:41:00,
2013-04-20 05:46:00,45.8,42.5,29.89,WSW,245,4.0,6.0,88,0.00,,,0.18,WeatherCatV1.02B4,2013-04-20 09:46:00,
2013-04-20 05:51:00,45.7,42.1,29.88,West,266,0.0,1.0,87,0.00,,,0.18,WeatherCatV1.02B4,2013-04-20 09:51:00,
2013-04-20 05:56:00,45.8,41.9,29.88,West,267,0.0,0.0,86,0.00,,,0.18,WeatherCatV1.02B4,2013-04-20 09:56:00,
2013-04-20 06:01:00,45.8,41.5,29.89,WNW,295,4.0,5.0,85,0.00,,,0.18,WeatherCatV1.02B4,2013-04-20 10:01:00,
2013-04-20 06:06:00,45.8,41.5,29.89,NNW,338,0.0,0.0,85,0.00,,,0.18,WeatherCatV1.02B4,2013-04-20 10:06:00,
2013-04-20 06:11:00,45.8,40.9,29.90,West,267,0.0,0.0,83,0.00,,,0.18,WeatherCatV1.02B4,2013-04-20 10:11:00,
2013-04-20 06:16:00,45.9,40.7,29.90,West,272,0.0,0.0,82,0.00,,,0.18,WeatherCatV1.02B4,2013-04-20 10:16:00,
2013-04-20 06:21:00,45.9,40.1,29.91,NNW,348,0.0,5.0,80,0.00,,,0.18,WeatherCatV1.02B4,2013-04-20 10:21:00,
2013-04-20 06:26:00,45.9,39.8,29.91,WSW,257,0.0,0.0,79,0.00,,,0.18,WeatherCatV1.02B4,2013-04-20 10:26:00,
2013-04-20 06:31:00,46.1,39.3,29.91,WSW,258,0.0,0.0,77,0.00,,,0.18,WeatherCatV1.02B4,2013-04-20 10:31:00,
2013-04-20 06:36:00,46.2,39.1,29.91,West,267,0.0,0.0,76,0.00,,,0.18,WeatherCatV1.02B4,2013-04-20 10:36:00,
2013-04-20 06:41:00,46.3,38.8,29.91,WNW,287,3.0,5.0,75,0.00,,,0.18,WeatherCatV1.02B4,2013-04-20 10:41:00,
2013-04-20 06:46:00,46.3,38.1,29.91,NNW,329,1.0,1.0,73,0.00,,,0.18,WeatherCatV1.02B4,2013-04-20 10:46:00,
2013-04-20 06:51:00,46.3,38.1,29.92,WSW,239,0.0,4.0,73,0.00,,,0.18,WeatherCatV1.02B4,2013-04-20 10:51:00,
2013-04-20 06:56:00,46.3,37.8,29.92,WSW,239,0.0,0.0,72,0.00,,,0.18,WeatherCatV1.02B4,2013-04-20 10:56:00,
2013-04-20 07:01:00,46.3,37.4,29.92,WSW,239,0.0,0.0,71,0.00,,,0.18,WeatherCatV1.02B4,2013-04-20 11:01:00,
2013-04-20 07:06:00,46.3,37.4,29.92,WSW,239,0.0,0.0,71,0.00,,,0.18,WeatherCatV1.02B4,2013-04-20 11:06:00,
2013-04-20 07:11:00,46.4,37.5,29.92,WSW,239,0.0,0.0,71,0.00,,,0.18,WeatherCatV1.02B4,2013-04-20 11:11:00,
2013-04-20 07:16:00,46.4,37.2,29.92,WSW,240,0.0,0.0,70,0.00,,,0.18,WeatherCatV1.02B4,2013-04-20 11:16:00,
2013-04-20 07:21:00,46.4,36.8,29.93,WSW,249,1.0,6.0,69,0.00,,,0.18,WeatherCatV1.02B4,2013-04-20 11:21:00,
2013-04-20 07:26:00,46.5,36.5,29.94,WNW,285,4.0,5.0,68,0.00,,,0.18,WeatherCatV1.02B4,2013-04-20 11:26:00,
2013-04-20 07:31:00,46.5,36.1,29.93,West,261,1.0,1.0,67,0.00,,,0.18,WeatherCatV1.02B4,2013-04-20 11:31:00,
2013-04-20 07:36:00,46.6,36.2,29.93,West,264,0.0,5.0,67,0.00,,,0.18,WeatherCatV1.02B4,2013-04-20 11:36:00,
2013-04-20 07:41:00,46.7,35.6,29.94,WNW,284,0.0,0.0,65,0.00,,,0.18,WeatherCatV1.02B4,2013-04-20 11:41:00,
2013-04-20 07:46:00,47.0,35.9,29.94,WNW,293,0.0,6.0,65,0.00,,,0.18,WeatherCatV1.02B4,2013-04-20 11:46:00,
2013-04-20 07:51:00,47.3,36.1,29.94,WNW,301,0.0,0.0,65,0.00,,,0.18,WeatherCatV1.02B4,2013-04-20 11:51:00,
2013-04-20 07:56:00,47.7,35.3,29.93,NW,322,0.0,5.0,62,0.00,,,0.18,WeatherCatV1.02B4,2013-04-20 11:56:00,
2013-04-20 08:01:00,47.9,35.9,29.94,WSW,252,0.0,4.0,63,0.00,,,0.18,WeatherCatV1.02B4,2013-04-20 12:01:00,
2013-04-20 08:06:00,48.1,35.7,29.94,WSW,254,0.0,4.0,62,0.00,,,0.18,WeatherCatV1.02B4,2013-04-20 12:06:00,
2013-04-20 08:11:00,48.2,35.4,29.94,West,262,0.0,0.0,61,0.00,,,0.18,WeatherCatV1.02B4,2013-04-20 12:11:00,
2013-04-20 08:16:00,48.3,35.1,29.94,WSW,249,0.0,2.0,60,0.00,,,0.18,WeatherCatV1.02B4,2013-04-20 12:16:00,
2013-04-20 08:21:00,48.4,35.6,29.95,WNW,284,3.0,4.0,61,0.00,,,0.18,WeatherCatV1.02B4,2013-04-20 12:21:00,
2013-04-20 08:26:00,48.5,35.3,29.95,West,274,4.0,5.0,60,0.00,,,0.18,WeatherCatV1.02B4,2013-04-20 12:26:00,
2013-04-20 08:31:00,48.6,35.3,29.95,NNW,339,0.0,3.0,60,0.00,,,0.18,WeatherCatV1.02B4,2013-04-20 12:31:00,
2013-04-20 08:36:00,48.7,35.0,29.95,NNW,344,3.0,10.0,59,0.00,,,0.18,WeatherCatV1.02B4,2013-04-20 12:36:00,
2013-04-20 08:41:00,48.7,34.6,29.95,NNW,327,2.0,6.0,58,0.00,,,0.18,WeatherCatV1.02B4,2013-04-20 12:41:00,
2013-04-20 08:46:00,48.7,35.0,29.96,WSW,257,3.0,6.0,59,0.00,,,0.18,WeatherCatV1.02B4,2013-04-20 12:46:00,
2013-04-20 08:51:00,48.7,34.6,29.96,West,268,4.0,10.0,58,0.00,,,0.18,WeatherCatV1.02B4,2013-04-20 12:51:00,
2013-04-20 08:56:00,48.7,33.7,29.96,WNW,290,2.0,5.0,56,0.00,,,0.18,WeatherCatV1.02B4,2013-04-20 12:56:00,
2013-04-20 09:01:00,48.7,34.2,29.97,WNW,293,3.0,5.0,57,0.00,,,0.18,WeatherCatV1.02B4,2013-04-20 13:01:00,
2013-04-20 09:06:00,48.7,34.2,29.97,West,260,2.0,7.0,57,0.00,,,0.18,WeatherCatV1.02B4,2013-04-20 13:06:00,
2013-04-20 09:11:00,48.8,34.7,29.97,North,350,3.0,5.0,58,0.00,,,0.18,WeatherCatV1.02B4,2013-04-20 13:11:00,
2013-04-20 09:16:00,48.8,34.2,29.97,West,266,2.0,7.0,57,0.00,,,0.18,WeatherCatV1.02B4,2013-04-20 13:16:00,
2013-04-20 09:21:00,48.7,33.7,29.98,WSW,253,2.0,9.0,56,0.00,,,0.18,WeatherCatV1.02B4,2013-04-20 13:21:00,
2013-04-20 09:26:00,48.6,33.6,29.98,NNW,345,7.0,7.0,56,0.00,,,0.18,WeatherCatV1.02B4,2013-04-20 13:26:00,
2013-04-20 09:31:00,48.6,33.6,29.98,North,0,1.0,8.0,56,0.00,,,0.18,WeatherCatV1.02B4,2013-04-20 13:31:00,
2013-04-20 09:36:00,48.6,34.1,29.99,North,358,1.0,5.0,57,0.00,,,0.18,WeatherCatV1.02B4,2013-04-20 13:36:00,
2013-04-20 09:41:00,48.7,33.7,29.99,West,263,3.0,11.0,56,0.00,,,0.18,WeatherCatV1.02B4,2013-04-20 13:41:00,
2013-04-20 09:46:00,48.7,33.7,30.00,WNW,302,0.0,0.0,56,0.00,,,0.18,WeatherCatV1.02B4,2013-04-20 13:46:00,
2013-04-20 09:51:00,48.8,33.4,30.00,West,264,6.0,7.0,55,0.00,,,0.18,WeatherCatV1.02B4,2013-04-20 13:51:00,
2013-04-20 09:56:00,48.8,32.9,30.00,WSW,253,7.0,9.0,54,0.00,,,0.18,WeatherCatV1.02B4,2013-04-20 13:56:00,
2013-04-20 10:01:00,48.8,33.4,30.00,North,351,2.0,6.0,55,0.00,,,0.18,WeatherCatV1.02B4,2013-04-20 14:01:00,
2013-04-20 10:06:00,48.8,32.9,30.01,NW,323,3.0,5.0,54,0.00,,,0.18,WeatherCatV1.02B4,2013-04-20 14:06:00,
2013-04-20 10:11:00,48.8,32.0,30.01,SW,235,0.0,5.0,52,0.00,,,0.18,WeatherCatV1.02B4,2013-04-20 14:11:00,
2013-04-20 10:16:00,48.8,32.0,30.02,NNE,15,0.0,4.0,52,0.00,,,0.18,WeatherCatV1.02B4,2013-04-20 14:16:00,
2013-04-20 10:21:00,48.9,32.5,30.02,West,262,0.0,6.0,53,0.00,,,0.18,WeatherCatV1.02B4,2013-04-20 14:21:00,
2013-04-20 10:26:00,49.0,32.1,30.02,West,266,3.0,8.0,52,0.00,,,0.18,WeatherCatV1.02B4,2013-04-20 14:26:00,
2013-04-20 10:31:00,49.0,31.7,30.02,WNW,285,0.0,0.0,51,0.00,,,0.18,WeatherCatV1.02B4,2013-04-20 14:31:00,
2013-04-20 10:36:00,48.9,32.1,30.03,NW,313,3.0,4.0,52,0.00,,,0.18,WeatherCatV1.02B4,2013-04-20 14:36:00,
2013-04-20 10:41:00,49.0,32.6,30.03,North,0,4.0,7.0,53,0.00,,,0.18,WeatherCatV1.02B4,2013-04-20 14:41:00,
2013-04-20 10:47:00,49.1,32.7,30.04,NW,318,2.0,5.0,53,0.00,,,0.18,WeatherCatV1.02B4,2013-04-20 14:47:00,
2013-04-20 10:52:00,49.2,33.3,30.04,West,281,0.0,5.0,54,0.00,,,0.18,WeatherCatV1.02B4,2013-04-20 14:52:00,
2013-04-20 10:57:00,49.5,32.1,30.04,West,270,6.0,10.0,51,0.00,,,0.18,WeatherCatV1.02B4,2013-04-20 14:57:00,
2013-04-20 11:02:00,49.5,31.1,30.04,WNW,293,0.0,11.0,49,0.00,,,0.18,WeatherCatV1.02B4,2013-04-20 15:02:00,
2013-04-20 11:07:00,49.7,30.3,30.04,West,275,3.0,11.0,47,0.00,,,0.18,WeatherCatV1.02B4,2013-04-20 15:07:00,
2013-04-20 11:12:00,49.8,30.4,30.04,WSW,241,3.0,6.0,47,0.00,,,0.18,WeatherCatV1.02B4,2013-04-20 15:12:00,
2013-04-20 11:17:00,49.8,29.9,30.04,WSW,254,0.0,9.0,46,0.00,,,0.18,WeatherCatV1.02B4,2013-04-20 15:17:00,
2013-04-20 11:22:00,50.0,30.0,30.04,WNW,289,3.0,9.0,46,0.00,,,0.18,WeatherCatV1.02B4,2013-04-20 15:22:00,
2013-04-20 11:27:00,50.3,30.8,30.04,WNW,283,6.0,10.0,47,0.00,,,0.18,WeatherCatV1.02B4,2013-04-20 15:27:00,
2013-04-20 11:32:00,50.4,30.9,30.04,NW,320,3.0,8.0,47,0.00,,,0.18,WeatherCatV1.02B4,2013-04-20 15:32:00,
2013-04-20 11:37:00,50.5,31.0,30.04,NNW,342,4.0,7.0,47,0.00,,,0.18,WeatherCatV1.02B4,2013-04-20 15:37:00,
2013-04-20 11:42:00,50.7,31.7,30.04,West,267,0.0,8.0,48,0.00,,,0.18,WeatherCatV1.02B4,2013-04-20 15:42:00,
2013-04-20 11:47:00,51.0,31.5,30.04,West,280,4.0,9.0,47,0.00,,,0.18,WeatherCatV1.02B4,2013-04-20 15:47:00,
2013-04-20 11:52:00,51.1,30.5,30.04,West,265,8.0,10.0,45,0.00,,,0.18,WeatherCatV1.02B4,2013-04-20 15:52:00,
2013-04-20 11:57:00,51.2,30.6,30.04,WNW,293,0.0,6.0,45,0.00,,,0.18,WeatherCatV1.02B4,2013-04-20 15:57:00,
2013-04-20 12:02:00,51.5,31.4,30.04,West,279,1.0,6.0,46,0.00,,,0.18,WeatherCatV1.02B4,2013-04-20 16:02:00,
2013-04-20 12:07:00,51.8,32.2,30.04,NW,325,5.0,9.0,47,0.00,,,0.18,WeatherCatV1.02B4,2013-04-20 16:07:00,
2013-04-20 12:12:00,52.0,29.6,30.04,WSW,258,7.0,11.0,42,0.00,,,0.18,WeatherCatV1.02B4,2013-04-20 16:12:00,
2013-04-20 12:17:00,52.3,29.9,30.04,NW,311,3.0,9.0,42,0.00,,,0.18,WeatherCatV1.02B4,2013-04-20 16:17:00,
2013-04-20 12:22:00,52.5,30.1,30.04,WNW,302,6.0,6.0,42,0.00,,,0.18,WeatherCatV1.02B4,2013-04-20 16:22:00,
2013-04-20 12:27:00,52.6,29.6,30.04,WNW,285,4.0,9.0,41,0.00,,,0.18,WeatherCatV1.02B4,2013-04-20 16:27:00,
2013-04-20 12:32:00,52.8,29.8,30.04,NW,308,3.0,11.0,41,0.00,,,0.18,WeatherCatV1.02B4,2013-04-20 16:32:00,
2013-04-20 12:37:00,53.2,29.5,30.03,WNW,288,2.0,7.0,40,0.00,,,0.18,WeatherCatV1.02B4,2013-04-20 16:37:00,
2013-04-20 12:42:00,53.2,31.3,30.03,WNW,295,3.0,8.0,43,0.00,,,0.18,WeatherCatV1.02B4,2013-04-20 16:42:00,
2013-04-20 12:47:00,53.3,29.6,30.03,NW,316,7.0,8.0,40,0.00,,,0.18,WeatherCatV1.02B4,2013-04-20 16:47:00,
2013-04-20 12:52:00,53.6,30.5,30.02,NNW,338,5.0,6.0,41,0.00,,,0.18,WeatherCatV1.02B4,2013-04-20 16:52:00,
2013-04-20 12:57:00,53.8,30.7,30.03,NW,312,2.0,7.0,41,0.00,,,0.18,WeatherCatV1.02B4,2013-04-20 16:57:00,
2013-04-20 13:02:00,54.1,31.5,30.03,WNW,295,4.0,6.0,42,0.00,,,0.18,WeatherCatV1.02B4,2013-04-20 17:02:00,
2013-04-20 13:07:00,54.4,29.3,30.02,WSW,244,6.0,12.0,38,0.00,,,0.18,WeatherCatV1.02B4,2013-04-20 17:07:00,
2013-04-20 13:12:00,54.5,29.4,30.03,NW,311,4.0,15.0,38,0.00,,,0.18,WeatherCatV1.02B4,2013-04-20 17:12:00,
2013-04-20 13:17:00,54.6,29.5,30.03,SW,234,9.0,14.0,38,0.00,,,0.18,WeatherCatV1.02B4,2013-04-20 17:17:00,
2013-04-20 13:22:00,54.6,28.9,30.03,WSW,257,9.0,14.0,37,0.00,,,0.18,WeatherCatV1.02B4,2013-04-20 17:22:00,
2013-04-20 13:27:00,54.6,30.1,30.03,NNW,343,3.0,8.0,39,0.00,,,0.18,WeatherCatV1.02B4,2013-04-20 17:27:00,
2013-04-20 13:32:00,54.6,30.1,30.03,West,263,2.0,7.0,39,0.00,,,0.18,WeatherCatV1.02B4,2013-04-20 17:32:00,
2013-04-20 13:37:00,54.8,30.3,30.03,WNW,285,6.0,9.0,39,0.00,,,0.18,WeatherCatV1.02B4,2013-04-20 17:37:00,
2013-04-20 13:42:00,55.2,30.0,30.03,West,280,9.0,13.0,38,0.00,,,0.18,WeatherCatV1.02B4,2013-04-20 17:42:00,
2013-04-20 13:47:00,55.3,29.5,30.02,WSW,249,7.0,10.0,37,0.00,,,0.18,WeatherCatV1.02B4,2013-04-20 17:47:00,
2013-04-20 13:52:00,55.5,29.7,30.03,West,279,5.0,9.0,37,0.00,,,0.18,WeatherCatV1.02B4,2013-04-20 17:52:00,
2013-04-20 13:57:00,55.6,30.4,30.03,North,351,5.0,6.0,38,0.00,,,0.18,WeatherCatV1.02B4,2013-04-20 17:57:00,
2013-04-20 14:02:00,55.6,30.4,30.03,North,358,6.0,7.0,38,0.00,,,0.18,WeatherCatV1.02B4,2013-04-20 18:02:00,
2013-04-20 14:07:00,55.7,30.5,30.03,WSW,252,5.0,7.0,38,0.00,,,0.18,WeatherCatV1.02B4,2013-04-20 18:07:00,
2013-04-20 14:12:00,55.6,29.1,30.03,WSW,257,9.0,11.0,36,0.00,,,0.18,WeatherCatV1.02B4,2013-04-20 18:12:00,
2013-04-20 14:17:00,55.6,29.1,30.03,WNW,291,0.0,10.0,36,0.00,,,0.18,WeatherCatV1.02B4,2013-04-20 18:17:00,
2013-04-20 14:22:00,55.8,29.3,30.03,WSW,257,7.0,10.0,36,0.00,,,0.18,WeatherCatV1.02B4,2013-04-20 18:22:00,
2013-04-20 14:27:00,56.0,29.4,30.03,NNW,329,4.0,8.0,36,0.00,,,0.18,WeatherCatV1.02B4,2013-04-20 18:27:00,
2013-04-20 14:32:00,56.3,31.0,30.03,West,260,5.0,7.0,38,0.00,,,0.18,WeatherCatV1.02B4,2013-04-20 18:32:00,
2013-04-20 14:37:00,56.3,31.0,30.03,NW,316,2.0,7.0,38,0.00,,,0.18,WeatherCatV1.02B4,2013-04-20 18:37:00,
2013-04-20 14:42:00,55.7,29.2,30.03,West,273,3.0,10.0,36,0.00,,,0.18,WeatherCatV1.02B4,2013-04-20 18:42:00,
2013-04-20 14:47:00,55.8,29.9,30.02,SW,235,2.0,5.0,37,0.00,,,0.18,WeatherCatV1.02B4,2013-04-20 18:47:00,
2013-04-20 14:52:00,56.4,31.1,30.03,WNW,283,4.0,8.0,38,0.00,,,0.18,WeatherCatV1.02B4,2013-04-20 18:52:00,
2013-04-20 14:57:00,57.0,30.3,30.04,WNW,284,8.0,9.0,36,0.00,,,0.18,WeatherCatV1.02B4,2013-04-20 18:57:00,
2013-04-20 15:02:00,57.1,31.7,30.03,WNW,283,3.0,4.0,38,0.00,,,0.18,WeatherCatV1.02B4,2013-04-20 19:02:00,
2013-04-20 15:07:00,57.1,29.0,30.03,WNW,288,4.0,11.0,34,0.00,,,0.18,WeatherCatV1.02B4,2013-04-20 19:07:00,
2013-04-20 15:12:00,57.1,28.3,30.03,NNW,329,1.0,7.0,33,0.00,,,0.18,WeatherCatV1.02B4,2013-04-20 19:12:00,
2013-04-20 15:17:00,57.2,28.4,30.04,NNW,346,2.0,10.0,33,0.00,,,0.18,WeatherCatV1.02B4,2013-04-20 19:17:00,
2013-04-20 15:22:00,57.4,28.5,30.04,NW,310,4.0,7.0,33,0.00,,,0.18,WeatherCatV1.02B4,2013-04-20 19:22:00,
2013-04-20 15:27:00,57.5,28.6,30.04,North,354,4.0,6.0,33,0.00,,,0.18,WeatherCatV1.02B4,2013-04-20 19:27:00,
2013-04-20 15:32:00,57.2,29.8,30.04,North,359,8.0,8.0,35,0.00,,,0.18,WeatherCatV1.02B4,2013-04-20 19:32:00,
2013-04-20 15:37:00,56.9,28.8,30.04,West,280,5.0,12.0,34,0.00,,,0.18,WeatherCatV1.02B4,2013-04-20 19:37:00,
2013-04-20 15:42:00,56.8,29.4,30.05,WNW,303,2.0,12.0,35,0.00,,,0.18,WeatherCatV1.02B4,2013-04-20 19:42:00,
2013-04-20 15:47:00,56.7,29.4,30.05,West,274,2.0,7.0,35,0.00,,,0.18,WeatherCatV1.02B4,2013-04-20 19:47:00,
2013-04-20 15:52:00,57.2,29.1,30.05,NW,318,0.0,5.0,34,0.00,,,0.18,WeatherCatV1.02B4,2013-04-20 19:52:00,
2013-04-20 15:57:00,57.4,30.0,30.05,NW,304,3.0,5.0,35,0.00,,,0.18,WeatherCatV1.02B4,2013-04-20 19:57:00,
2013-04-20 16:02:00,57.7,28.8,30.05,WSW,258,0.0,9.0,33,0.00,,,0.18,WeatherCatV1.02B4,2013-04-20 20:02:00,
2013-04-20 16:07:00,58.0,29.1,30.05,NW,313,4.0,6.0,33,0.00,,,0.18,WeatherCatV1.02B4,2013-04-20 20:07:00,
2013-04-20 16:12:00,57.5,28.6,30.06,NNW,327,3.0,9.0,33,0.00,,,0.18,WeatherCatV1.02B4,2013-04-20 20:12:00,
2013-04-20 16:17:00,57.0,28.2,30.06,WNW,289,1.0,7.0,33,0.00,,,0.18,WeatherCatV1.02B4,2013-04-20 20:17:00,
2013-04-20 16:22:00,56.7,28.6,30.06,WSW,243,2.0,10.0,34,0.00,,,0.18,WeatherCatV1.02B4,2013-04-20 20:22:00,
2013-04-20 16:27:00,56.9,29.5,30.06,NNW,338,4.0,8.0,35,0.00,,,0.18,WeatherCatV1.02B4,2013-04-20 20:27:00,
2013-04-20 16:32:00,56.8,28.0,30.07,WSW,257,2.0,9.0,33,0.00,,,0.18,WeatherCatV1.02B4,2013-04-20 20:32:00,
2013-04-20 16:37:00,57.4,27.8,30.07,West,278,8.0,13.0,32,0.00,,,0.18,WeatherCatV1.02B4,2013-04-20 20:37:00,
2013-04-20 16:42:00,58.1,27.6,30.07,West,280,10.0,16.0,31,0.00,,,0.18,WeatherCatV1.02B4,2013-04-20 20:42:00,
2013-04-20 16:47:00,58.4,27.9,30.07,NW,309,0.0,6.0,31,0.00,,,0.18,WeatherCatV1.02B4,2013-04-20 20:47:00,
2013-04-20 16:52:00,58.6,28.8,30.07,WNW,297,3.0,4.0,32,0.00,,,0.18,WeatherCatV1.02B4,2013-04-20 20:52:00,
2013-04-20 16:57:00,58.2,27.7,30.07,West,268,4.0,7.0,31,0.00,,,0.18,WeatherCatV1.02B4,2013-04-20 20:57:00,
2013-04-20 17:02:00,57.6,28.0,30.08,WNW,295,3.0,6.0,32,0.00,,,0.18,WeatherCatV1.02B4,2013-04-20 21:02:00,
2013-04-20 17:07:00,57.6,28.0,30.08,NNW,333,3.0,9.0,32,0.00,,,0.18,WeatherCatV1.02B4,2013-04-20 21:07:00,
2013-04-20 17:12:00,57.0,26.7,30.08,West,261,0.0,5.0,31,0.00,,,0.18,WeatherCatV1.02B4,2013-04-20 21:12:00,
2013-04-20 17:17:00,56.5,26.2,30.08,North,5,4.0,9.0,31,0.00,,,0.18,WeatherCatV1.02B4,2013-04-20 21:17:00,
2013-04-20 17:22:00,56.9,26.6,30.09,West,264,2.0,4.0,31,0.00,,,0.18,WeatherCatV1.02B4,2013-04-20 21:22:00,
2013-04-20 17:27:00,57.4,27.0,30.09,NW,316,3.0,8.0,31,0.00,,,0.18,WeatherCatV1.02B4,2013-04-20 21:27:00,
2013-04-20 17:32:00,57.1,26.8,30.09,NW,309,4.0,10.0,31,0.00,,,0.18,WeatherCatV1.02B4,2013-04-20 21:32:00,
2013-04-20 17:37:00,56.9,25.8,30.10,WNW,283,5.0,8.0,30,0.00,,,0.18,WeatherCatV1.02B4,2013-04-20 21:37:00,
2013-04-20 17:42:00,57.4,27.0,30.10,WSW,244,4.0,5.0,31,0.00,,,0.18,WeatherCatV1.02B4,2013-04-20 21:42:00,
2013-04-20 17:47:00,57.4,26.2,30.11,NW,314,4.0,8.0,30,0.00,,,0.18,WeatherCatV1.02B4,2013-04-20 21:47:00,
2013-04-20 17:52:00,56.7,27.2,30.11,NNW,345,5.0,8.0,32,0.00,,,0.18,WeatherCatV1.02B4,2013-04-20 21:52:00,
2013-04-20 17:57:00,56.1,25.9,30.12,West,270,1.0,5.0,31,0.00,,,0.18,WeatherCatV1.02B4,2013-04-20 21:57:00,
2013-04-20 18:02:00,55.7,25.5,30.11,NNW,328,0.0,7.0,31,0.00,,,0.18,WeatherCatV1.02B4,2013-04-20 22:02:00,
2013-04-20 18:07:00,55.3,26.0,30.11,NW,315,4.0,8.0,32,0.00,,,0.18,WeatherCatV1.02B4,2013-04-20 22:07:00,
2013-04-20 18:12:00,54.9,25.6,30.12,NNW,341,6.0,7.0,32,0.00,,,0.18,WeatherCatV1.02B4,2013-04-20 22:12:00,
2013-04-20 18:17:00,54.6,26.1,30.12,NNW,332,1.0,3.0,33,0.00,,,0.18,WeatherCatV1.02B4,2013-04-20 22:17:00,
2013-04-20 18:22:00,54.4,25.2,30.12,WNW,284,3.0,5.0,32,0.00,,,0.18,WeatherCatV1.02B4,2013-04-20 22:22:00,
2013-04-20 18:27:00,54.2,24.2,30.13,North,350,0.0,3.0,31,0.00,,,0.18,WeatherCatV1.02B4,2013-04-20 22:27:00,
2013-04-20 18:32:00,54.0,24.8,30.13,WSW,256,0.0,3.0,32,0.00,,,0.18,WeatherCatV1.02B4,2013-04-20 22:32:00,
2013-04-20 18:37:00,53.8,24.6,30.13,NNW,329,3.0,9.0,32,0.00,,,0.18,WeatherCatV1.02B4,2013-04-20 22:37:00,
2013-04-20 18:42:00,53.7,25.3,30.14,NNW,327,0.0,10.0,33,0.00,,,0.18,WeatherCatV1.02B4,2013-04-20 22:42:00,
2013-04-20 18:47:00,53.5,25.1,30.14,NNW,332,5.0,6.0,33,0.00,,,0.18,WeatherCatV1.02B4,2013-04-20 22:47:00,
2013-04-20 18:52:00,53.3,24.9,30.14,WSW,250,3.0,4.0,33,0.00,,,0.18,WeatherCatV1.02B4,2013-04-20 22:52:00,
2013-04-20 18:57:00,53.2,24.1,30.14,NW,312,5.0,5.0,32,0.00,,,0.18,WeatherCatV1.02B4,2013-04-20 22:57:00,
2013-04-20 19:02:00,53.1,24.0,30.15,West,275,4.0,6.0,32,0.00,,,0.18,WeatherCatV1.02B4,2013-04-20 23:02:00,
2013-04-20 19:07:00,52.9,24.6,30.15,NNW,334,1.0,4.0,33,0.00,,,0.18,WeatherCatV1.02B4,2013-04-20 23:07:00,
2013-04-20 19:12:00,52.8,23.0,30.16,NW,306,0.0,7.0,31,0.00,,,0.18,WeatherCatV1.02B4,2013-04-20 23:12:00,
2013-04-20 19:17:00,52.6,24.3,30.16,North,11,0.0,0.0,33,0.00,,,0.18,WeatherCatV1.02B4,2013-04-20 23:17:00,
2013-04-20 19:22:00,52.3,24.1,30.17,NW,323,3.0,3.0,33,0.00,,,0.18,WeatherCatV1.02B4,2013-04-20 23:22:00,
2013-04-20 19:27:00,52.1,23.9,30.17,WNW,290,3.0,6.0,33,0.00,,,0.18,WeatherCatV1.02B4,2013-04-20 23:27:00,
2013-04-20 19:32:00,51.8,23.6,30.17,NNW,337,0.0,7.0,33,0.00,,,0.18,WeatherCatV1.02B4,2013-04-20 23:32:00,
2013-04-20 19:37:00,51.6,23.4,30.18,NNW,331,0.0,7.0,33,0.00,,,0.18,WeatherCatV1.02B4,2013-04-20 23:37:00,
2013-04-20 19:42:00,51.4,23.3,30.18,West,271,5.0,9.0,33,0.00,,,0.18,WeatherCatV1.02B4,2013-04-20 23:42:00,
2013-04-20 19:47:00,51.2,23.1,30.19,NW,320,0.0,5.0,33,0.00,,,0.18,WeatherCatV1.02B4,2013-04-20 23:47:00,
2013-04-20 19:52:00,51.0,22.9,30.19,NW,316,0.0,0.0,33,0.00,,,0.18,WeatherCatV1.02B4,2013-04-20 23:52:00,
2013-04-20 19:57:00,50.8,23.5,30.19,WNW,295,1.0,4.0,34,0.00,,,0.18,WeatherCatV1.02B4,2013-04-20 23:57:00,
2013-04-20 20:02:00,50.6,24.0,30.20,WNW,295,0.0,0.0,35,0.00,,,0.18,WeatherCatV1.02B4,2013-04-21 00:02:00,
2013-04-20 20:07:00,50.4,23.8,30.20,WNW,295,0.0,0.0,35,0.00,,,0.18,WeatherCatV1.02B4,2013-04-21 00:07:00,
2013-04-20 20:12:00,50.1,24.2,30.21,WNW,295,0.0,0.0,36,0.00,,,0.18,WeatherCatV1.02B4,2013-04-21 00:12:00,
2013-04-20 20:17:00,49.8,23.3,30.21,WNW,293,2.0,6.0,35,0.00,,,0.18,WeatherCatV1.02B4,2013-04-21 00:17:00,
2013-04-20 20:22:00,49.7,23.2,30.22,NNW,335,4.0,5.0,35,0.00,,,0.18,WeatherCatV1.02B4,2013-04-21 00:22:00,
2013-04-20 20:27:00,49.7,23.2,30.22,NW,319,0.0,0.0,35,0.00,,,0.18,WeatherCatV1.02B4,2013-04-21 00:27:00,
2013-04-20 20:32:00,49.5,24.3,30.23,NW,307,0.0,0.0,37,0.00,,,0.18,WeatherCatV1.02B4,2013-04-21 00:32:00,
2013-04-20 20:37:00,49.4,23.6,30.23,West,259,0.0,4.0,36,0.00,,,0.18,WeatherCatV1.02B4,2013-04-21 00:37:00,
2013-04-20 20:42:00,49.3,22.8,30.23,SW,226,1.0,5.0,35,0.00,,,0.18,WeatherCatV1.02B4,2013-04-21 00:42:00,
2013-04-20 20:47:00,49.2,23.4,30.24,NW,322,8.0,8.0,36,0.00,,,0.18,WeatherCatV1.02B4,2013-04-21 00:47:00,
2013-04-20 20:52:00,49.0,23.2,30.24,West,265,0.0,6.0,36,0.00,,,0.18,WeatherCatV1.02B4,2013-04-21 00:52:00,
2013-04-20 20:57:00,48.9,23.1,30.24,West,271,0.0,0.0,36,0.00,,,0.18,WeatherCatV1.02B4,2013-04-21 00:57:00,
2013-04-20 21:02:00,48.8,23.0,30.25,NW,324,2.0,2.0,36,0.00,,,0.18,WeatherCatV1.02B4,2013-04-21 01:02:00,
2013-04-20 21:07:00,48.7,23.0,30.25,West,272,0.0,1.0,36,0.00,,,0.18,WeatherCatV1.02B4,2013-04-21 01:07:00,
2013-04-20 21:12:00,48.5,22.8,30.26,WNW,285,0.0,3.0,36,0.00,,,0.18,WeatherCatV1.02B4,2013-04-21 01:12:00,
2013-04-20 21:17:00,48.4,22.7,30.26,WNW,297,0.0,0.0,36,0.00,,,0.18,WeatherCatV1.02B4,2013-04-21 01:17:00,
2013-04-20 21:22:00,48.2,23.2,30.27,NW,319,0.0,0.0,37,0.00,,,0.18,WeatherCatV1.02B4,2013-04-21 01:22:00,
2013-04-20 21:27:00,48.1,23.1,30.27,NNW,341,0.0,4.0,37,0.00,,,0.18,WeatherCatV1.02B4,2013-04-21 01:27:00,
2013-04-20 21:32:00,47.9,23.5,30.28,West,280,0.0,0.0,38,0.00,,,0.18,WeatherCatV1.02B4,2013-04-21 01:32:00,
2013-04-20 21:37:00,47.8,23.4,30.28,West,275,0.0,0.0,38,0.00,,,0.18,WeatherCatV1.02B4,2013-04-21 01:37:00,
2013-04-20 21:42:00,47.6,23.3,30.28,West,275,0.0,0.0,38,0.00,,,0.18,WeatherCatV1.02B4,2013-04-21 01:42:00,
2013-04-20 21:47:00,47.5,23.2,30.29,West,275,0.0,0.0,38,0.00,,,0.18,WeatherCatV1.02B4,2013-04-21 01:47:00,
2013-04-20 21:52:00,47.3,23.6,30.29,West,275,0.0,0.0,39,0.00,,,0.18,WeatherCatV1.02B4,2013-04-21 01:52:00,
2013-04-20 21:57:00,47.1,23.4,30.29,North,353,0.0,4.0,39,0.00,,,0.18,WeatherCatV1.02B4,2013-04-21 01:57:00,
2013-04-20 22:02:00,47.0,23.3,30.28,North,349,0.0,0.0,39,0.00,,,0.18,WeatherCatV1.02B4,2013-04-21 02:02:00,
2013-04-20 22:07:00,46.8,23.8,30.28,NW,316,0.0,0.0,40,0.00,,,0.18,WeatherCatV1.02B4,2013-04-21 02:07:00,
2013-04-20 22:12:00,46.7,23.7,30.29,North,354,0.0,3.0,40,0.00,,,0.18,WeatherCatV1.02B4,2013-04-21 02:12:00,
2013-04-20 22:17:00,46.5,23.5,30.29,NNW,344,0.0,0.0,40,0.00,,,0.18,WeatherCatV1.02B4,2013-04-21 02:17:00,
2013-04-20 22:22:00,46.3,23.3,30.29,NNW,333,0.0,0.0,40,0.00,,,0.18,WeatherCatV1.02B4,2013-04-21 02:22:00,
2013-04-20 22:27:00,46.2,23.2,30.30,NNW,333,0.0,0.0,40,0.00,,,0.18,WeatherCatV1.02B4,2013-04-21 02:27:00,
2013-04-20 22:32:00,46.1,23.1,30.30,NNW,331,0.0,0.0,40,0.00,,,0.18,WeatherCatV1.02B4,2013-04-21 02:32:00,
2013-04-20 22:37:00,46.0,23.0,30.30,NNW,332,0.0,3.0,40,0.00,,,0.18,WeatherCatV1.02B4,2013-04-21 02:37:00,
2013-04-20 22:42:00,45.9,23.0,30.31,NNW,332,0.0,0.0,40,0.00,,,0.18,WeatherCatV1.02B4,2013-04-21 02:42:00,
2013-04-20 22:47:00,45.8,23.5,30.31,NNW,332,0.0,0.0,41,0.00,,,0.18,WeatherCatV1.02B4,2013-04-21 02:47:00,
2013-04-20 22:52:00,45.7,23.4,30.31,NW,309,0.0,0.0,41,0.00,,,0.18,WeatherCatV1.02B4,2013-04-21 02:52:00,
2013-04-20 22:57:00,45.6,23.3,30.31,NW,309,0.0,0.0,41,0.00,,,0.18,WeatherCatV1.02B4,2013-04-21 02:57:00,
2013-04-20 23:02:00,45.4,23.1,30.31,NW,311,0.0,0.0,41,0.00,,,0.18,WeatherCatV1.02B4,2013-04-21 03:02:00,
2013-04-20 23:07:00,45.4,23.7,30.31,North,4,0.0,0.0,42,0.00,,,0.18,WeatherCatV1.02B4,2013-04-21 03:07:00,
2013-04-20 23:13:00,45.2,23.5,30.32,North,0,0.0,0.0,42,0.00,,,0.18,WeatherCatV1.02B4,2013-04-21 03:13:00,
2013-04-20 23:18:00,45.1,23.4,30.31,NW,311,2.0,2.0,42,0.00,,,0.18,WeatherCatV1.02B4,2013-04-21 03:18:00,
2013-04-20 23:23:00,44.8,23.1,30.32,WNW,282,0.0,0.0,42,0.00,,,0.18,WeatherCatV1.02B4,2013-04-21 03:23:00,
2013-04-20 23:28:00,44.7,23.0,30.32,WNW,282,0.0,0.0,42,0.00,,,0.18,WeatherCatV1.02B4,2013-04-21 03:28:00,
2013-04-20 23:33:00,44.6,22.9,30.32,WNW,283,0.0,3.0,42,0.00,,,0.18,WeatherCatV1.02B4,2013-04-21 03:33:00,
2013-04-20 23:38:00,44.5,22.9,30.32,North,358,3.0,4.0,42,0.00,,,0.18,WeatherCatV1.02B4,2013-04-21 03:38:00,
2013-04-20 23:43:00,44.5,23.4,30.33,WNW,289,0.0,6.0,43,0.00,,,0.18,WeatherCatV1.02B4,2013-04-21 03:43:00,
2013-04-20 23:48:00,44.4,23.3,30.33,WNW,289,0.0,0.0,43,0.00,,,0.18,WeatherCatV1.02B4,2013-04-21 03:48:00,
2013-04-20 23:53:00,44.2,23.1,30.33,NNW,340,0.0,5.0,43,0.00,,,0.18,WeatherCatV1.02B4,2013-04-21 03:53:00,
2013-04-20 23:58:00,44.2,23.1,30.34,NNW,344,0.0,3.0,43,0.00,,,0.18,WeatherCatV1.02B4,2013-04-21 03:58:00,